createdAt,value
2022-11-10T00:03:06.417Z,101682.88
2022-11-10T00:08:28.246Z,101681.09
2022-11-10T00:14:07.618Z,101687.97
2022-11-10T00:19:31.580Z,101706.19
2022-11-10T00:24:53.506Z,101722.84
2022-11-10T00:30:15.905Z,101720.78
2022-11-10T00:35:39.023Z,101722.50
2022-11-10T00:41:01.191Z,101710.13
2022-11-10T00:46:22.840Z,101725.13
2022-11-10T00:51:46.429Z,101727.69
2022-11-10T00:57:08.470Z,101726.63
2022-11-10T01:02:30.217Z,101735.22
2022-11-10T01:07:53.075Z,101753.38
2022-11-10T01:13:14.493Z,101760.16
2022-11-10T01:18:36.887Z,101761.81
2022-11-10T01:24:00.605Z,101746.81
2022-11-10T01:29:22.531Z,101765.16
2022-11-10T01:34:44.218Z,101765.06
2022-11-10T01:40:08.731Z,101762.28
2022-11-10T01:45:46.005Z,101761.47
2022-11-10T01:51:11.412Z,101765.81
2022-11-10T01:56:38.042Z,101764.91
2022-11-10T02:02:18.978Z,101763.09
2022-11-10T02:07:41.284Z,101776.22
2022-11-10T02:13:04.178Z,101785.81
2022-11-10T02:18:25.968Z,101791.78
2022-11-10T02:23:51.421Z,101806.56
2022-11-10T02:29:13.408Z,101817.03
2022-11-10T02:34:35.966Z,101824.00
2022-11-10T02:39:58.851Z,101815.13
2022-11-10T02:45:20.402Z,101825.56
2022-11-10T02:50:42.389Z,101828.78
2022-11-10T02:56:05.602Z,101843.47
2022-11-10T03:01:27.251Z,101838.97
2022-11-10T03:06:49.220Z,101846.72
2022-11-10T03:12:12.341Z,101852.72
2022-11-10T03:17:33.861Z,101858.59
2022-11-10T03:23:00.822Z,101867.28
2022-11-10T03:28:23.770Z,101867.09
2022-11-10T03:33:45.257Z,101873.16
2022-11-10T03:39:07.086Z,101877.59
2022-11-10T03:44:30.165Z,101881.00
2022-11-10T03:49:51.920Z,101891.44
2022-11-10T03:55:16.017Z,101901.13
2022-11-10T04:00:39.265Z,101908.88
2022-11-10T04:06:19.658Z,101910.50
2022-11-10T04:11:58.613Z,101927.16
2022-11-10T04:17:22.248Z,101921.19
2022-11-10T04:23:01.286Z,101939.44
2022-11-10T04:28:22.812Z,101957.72
2022-11-10T04:33:47.456Z,101972.47
2022-11-10T04:39:09.715Z,101979.31
2022-11-10T04:44:31.658Z,101988.00
2022-11-10T04:49:54.521Z,101976.59
2022-11-10T04:55:16.359Z,101990.44
2022-11-10T05:00:38.431Z,101985.06
2022-11-10T05:06:01.773Z,101983.28
2022-11-10T05:11:23.783Z,101988.41
2022-11-10T05:16:45.715Z,101995.50
2022-11-10T05:22:08.681Z,102005.16
2022-11-10T05:27:31.168Z,102012.22
2022-11-10T05:32:53.013Z,102011.22
2022-11-10T05:38:16.065Z,102012.22
2022-11-10T05:43:37.960Z,102016.47
2022-11-10T05:48:59.508Z,102014.75
2022-11-10T05:54:24.623Z,102026.84
2022-11-10T05:59:45.942Z,102033.81
2022-11-10T06:05:08.495Z,102031.19
2022-11-10T06:10:31.602Z,102027.75
2022-11-10T06:15:54.890Z,102045.31
2022-11-10T06:21:16.516Z,102054.78
2022-11-10T06:26:39.268Z,102063.47
2022-11-10T06:32:01.056Z,102071.06
2022-11-10T06:37:23.046Z,102092.09
2022-11-10T06:42:46.338Z,102097.34
2022-11-10T06:48:10.619Z,102104.41
2022-11-10T06:53:32.678Z,102101.69
2022-11-10T06:58:56.154Z,102107.75
2022-11-10T07:04:20.424Z,102122.44
2022-11-10T07:09:42.632Z,102138.28
2022-11-10T07:15:06.384Z,102160.25
2022-11-10T07:20:31.002Z,102160.25
2022-11-10T07:25:53.247Z,102153.41
2022-11-10T07:31:16.353Z,102158.44
2022-11-10T07:36:37.752Z,102158.44
2022-11-10T07:41:59.354Z,102160.34
2022-11-10T07:47:22.432Z,102164.06
2022-11-10T07:52:44.304Z,102185.44
2022-11-10T07:58:06.959Z,102196.53
2022-11-10T08:03:31.172Z,102204.94
2022-11-10T08:08:53.087Z,102197.66
2022-11-10T08:14:14.954Z,102202.06
2022-11-10T08:19:38.279Z,102214.50
2022-11-10T08:25:00.167Z,102215.81
2022-11-10T08:30:21.870Z,102219.94
2022-11-10T08:35:46.557Z,102210.03
2022-11-10T08:41:08.579Z,102229.78
2022-11-10T08:46:30.022Z,102227.72
2022-11-10T08:51:53.065Z,102242.06
2022-11-10T08:57:15.350Z,102258.72
2022-11-10T09:02:37.096Z,102258.16
2022-11-10T09:08:00.188Z,102263.56
2022-11-10T09:13:27.857Z,102256.06
2022-11-10T09:18:51.629Z,102248.19
2022-11-10T09:24:14.780Z,102260.31
2022-11-10T09:29:36.977Z,102262.22
2022-11-10T09:34:59.069Z,102259.28
2022-11-10T09:40:25.274Z,102270.84
2022-11-10T09:45:51.669Z,102272.00
2022-11-10T09:51:19.417Z,102292.47
2022-11-10T09:56:42.764Z,102296.50
2022-11-10T10:02:06.876Z,102301.69
2022-11-10T10:07:36.345Z,102304.75
2022-11-10T10:13:15.444Z,102309.91
2022-11-10T10:18:45.531Z,102328.13
2022-11-10T10:24:18.261Z,102356.72
2022-11-10T10:29:47.410Z,102369.50
2022-11-10T10:35:14.403Z,102362.81
2022-11-10T10:40:35.882Z,102374.59
2022-11-10T10:46:07.936Z,102349.75
2022-11-10T10:51:31.587Z,102350.72
2022-11-10T10:57:02.900Z,102346.41
2022-11-10T11:02:30.033Z,102340.69
2022-11-10T11:07:56.332Z,102351.34
2022-11-10T11:13:23.776Z,102356.50
2022-11-10T11:18:46.633Z,102359.81
2022-11-10T11:24:28.972Z,102381.44
2022-11-10T11:30:11.040Z,102376.63
2022-11-10T11:35:44.116Z,102391.91
2022-11-10T11:41:17.829Z,102410.66
2022-11-10T11:46:49.309Z,102430.03
2022-11-10T11:52:26.359Z,102420.41
2022-11-10T11:58:06.218Z,102419.81
2022-11-10T12:03:43.857Z,102402.22
2022-11-10T12:09:17.641Z,102421.84
2022-11-10T12:14:50.852Z,102419.69
2022-11-10T12:20:24.879Z,102418.09
2022-11-10T12:25:52.538Z,102426.91
2022-11-10T12:31:21.808Z,102430.88
2022-11-10T12:36:44.068Z,102430.75
2022-11-10T12:42:13.818Z,102432.19
2022-11-10T12:47:45.073Z,102429.44
2022-11-10T12:53:15.306Z,102426.22
2022-11-10T12:58:38.268Z,102403.91
2022-11-10T13:04:02.604Z,102418.25
2022-11-10T13:09:29.237Z,102415.03
2022-11-10T13:14:52.870Z,102429.16
2022-11-10T13:20:48.206Z,102433.53
2022-11-10T13:26:12.604Z,102440.03
2022-11-10T13:31:52.127Z,102427.31
2022-11-10T13:37:46.515Z,102416.06
2022-11-10T13:43:27.433Z,102410.47
2022-11-10T13:49:15.688Z,102410.41
2022-11-10T13:55:11.838Z,102417.41
2022-11-10T14:00:37.616Z,102416.44
2022-11-10T14:06:23.015Z,102405.44
2022-11-10T14:11:50.271Z,102403.66
2022-11-10T14:17:20.143Z,102421.06
2022-11-10T14:22:47.570Z,102430.81
2022-11-10T14:28:25.622Z,102454.38
2022-11-10T14:33:55.228Z,102456.84
2022-11-10T14:39:18.402Z,102459.44
2022-11-10T14:44:40.534Z,102463.84
2022-11-10T14:50:07.388Z,102483.53
2022-11-10T14:55:32.916Z,102477.53
2022-11-10T15:00:55.892Z,102486.03
2022-11-10T15:06:17.739Z,102491.84
2022-11-10T15:11:48.459Z,102487.16
2022-11-10T15:17:11.699Z,102488.97
2022-11-10T15:22:36.746Z,102482.03
2022-11-10T15:28:03.084Z,102482.16
2022-11-10T15:33:29.623Z,102494.00
2022-11-10T15:39:03.542Z,102511.97
2022-11-10T15:44:29.260Z,102512.34
2022-11-10T15:49:51.314Z,102524.25
2022-11-10T15:55:20.851Z,102505.09
2022-11-10T16:00:44.204Z,102513.34
2022-11-10T16:06:05.522Z,102506.38
2022-11-10T16:11:27.497Z,102509.56
2022-11-10T16:16:50.893Z,102516.72
2022-11-10T16:22:13.085Z,102527.72
2022-11-10T16:27:37.208Z,102542.09
2022-11-10T16:33:00.701Z,102542.38
2022-11-10T16:38:25.198Z,102543.72
2022-11-10T16:43:47.312Z,102561.59
2022-11-10T16:49:22.984Z,102570.59
2022-11-10T16:54:44.381Z,102561.38
2022-11-10T17:00:07.041Z,102567.06
2022-11-10T17:05:30.322Z,102569.28
2022-11-10T17:10:52.812Z,102581.94
2022-11-10T17:16:22.897Z,102576.16
2022-11-10T17:21:47.518Z,102578.38
2022-11-10T17:27:09.964Z,102580.50
2022-11-10T17:32:58.106Z,102605.44
2022-11-10T17:38:23.601Z,102597.78
2022-11-10T17:43:46.225Z,102611.50
2022-11-10T17:49:08.617Z,102623.41
2022-11-10T17:54:32.325Z,102624.50
2022-11-10T17:59:53.938Z,102620.78
2022-11-10T18:05:24.990Z,102618.59
2022-11-10T18:10:50.481Z,102611.16
2022-11-10T18:16:13.998Z,102611.63
2022-11-10T18:21:35.681Z,102613.97
2022-11-10T18:26:58.515Z,102611.78
2022-11-10T18:32:20.632Z,102614.31
2022-11-10T18:37:42.450Z,102600.06
2022-11-10T18:43:08.191Z,102595.41
2022-11-10T18:48:34.670Z,102602.13
2022-11-10T18:53:59.462Z,102604.41
2022-11-10T18:59:22.349Z,102615.38
2022-11-10T19:04:44.461Z,102625.50
2022-11-10T19:10:07.536Z,102642.03
2022-11-10T19:15:31.094Z,102648.69
2022-11-10T19:20:52.892Z,102649.22
2022-11-10T19:26:21.034Z,102644.66
2022-11-10T19:31:46.171Z,102631.25
2022-11-10T19:37:08.155Z,102643.47
2022-11-10T19:42:29.886Z,102657.25
2022-11-10T19:47:52.957Z,102680.53
2022-11-10T19:53:14.900Z,102690.94
2022-11-10T19:58:37.965Z,102680.13
2022-11-10T20:04:03.153Z,102675.66
2022-11-10T20:09:24.967Z,102676.59
2022-11-10T20:14:46.344Z,102669.31
2022-11-10T20:20:10.527Z,102674.47
2022-11-10T20:25:33.456Z,102669.72
2022-11-10T20:30:57.850Z,102674.78
2022-11-10T20:36:23.857Z,102659.53
2022-11-10T20:41:45.797Z,102657.31
2022-11-10T20:47:07.651Z,102672.53
2022-11-10T20:52:31.608Z,102667.97
2022-11-10T20:57:53.929Z,102667.88
2022-11-10T21:03:15.714Z,102680.72
2022-11-10T21:08:39.115Z,102691.91
2022-11-10T21:14:01.605Z,102704.97
2022-11-10T21:19:23.120Z,102698.59
2022-11-10T21:24:46.433Z,102700.22
2022-11-10T21:30:13.936Z,102700.81
2022-11-10T21:35:38.345Z,102715.56
2022-11-10T21:41:01.731Z,102717.19
2022-11-10T21:46:36.883Z,102750.19
2022-11-10T21:51:58.733Z,102767.47
2022-11-10T21:57:21.784Z,102762.03
2022-11-10T22:02:43.285Z,102761.81
2022-11-10T22:08:07.078Z,102769.56
2022-11-10T22:13:47.517Z,102770.19
2022-11-10T22:19:10.617Z,102773.59
2022-11-10T22:24:32.239Z,102782.03
2022-11-10T22:29:55.406Z,102791.44
2022-11-10T22:35:31.066Z,102779.91
2022-11-10T22:41:10.634Z,102779.03
2022-11-10T22:46:35.066Z,102783.13
2022-11-10T22:51:56.849Z,102784.63
2022-11-10T22:57:18.514Z,102799.47
2022-11-10T23:02:41.451Z,102822.88
2022-11-10T23:08:03.755Z,102837.72
2022-11-10T23:13:25.721Z,102834.41
2022-11-10T23:18:50.857Z,102844.31
2022-11-10T23:24:13.601Z,102843.13
2022-11-10T23:29:35.390Z,102841.78
2022-11-10T23:34:58.569Z,102843.56
2022-11-10T23:40:20.611Z,102844.72
2022-11-10T23:46:05.366Z,102840.59
2022-11-10T23:51:25.865Z,102848.09
2022-11-10T23:56:47.885Z,102850.16
